createdAt,value
2022-11-08T00:00:10.834Z,7.41
2022-11-08T00:03:00.757Z,7.42
2022-11-08T00:05:47.702Z,7.49
2022-11-08T00:08:35.090Z,7.48
2022-11-08T00:11:24.129Z,7.45
2022-11-08T00:13:58.656Z,7.53
2022-11-08T00:16:26.845Z,7.57
2022-11-08T00:18:54.562Z,7.54
2022-11-08T00:21:21.963Z,7.54
2022-11-08T00:23:49.555Z,7.58
2022-11-08T00:26:17.001Z,7.57
2022-11-08T00:28:44.607Z,7.53
2022-11-08T00:31:11.866Z,7.54
2022-11-08T00:33:39.572Z,7.52
2022-11-08T00:36:07.084Z,7.62
2022-11-08T00:38:35.212Z,7.58
2022-11-08T00:41:02.764Z,7.52
2022-11-08T00:43:30.463Z,7.54
2022-11-08T00:45:57.843Z,7.53
2022-11-08T00:48:25.604Z,7.62
2022-11-08T00:50:53.332Z,7.61
2022-11-08T00:53:21.207Z,7.59
2022-11-08T00:55:48.445Z,7.64
2022-11-08T00:58:16.411Z,7.65
2022-11-08T01:00:43.814Z,7.66
2022-11-08T01:03:24.137Z,7.68
2022-11-08T01:05:53.812Z,7.69
2022-11-08T01:08:23.118Z,7.74
2022-11-08T01:10:53.211Z,7.73
2022-11-08T01:13:21.647Z,7.76
2022-11-08T01:15:49.403Z,7.82
2022-11-08T01:18:17.669Z,7.79
2022-11-08T01:20:47.457Z,7.79
2022-11-08T01:23:15.941Z,7.79
2022-11-08T01:25:45.151Z,7.81
2022-11-08T01:28:13.278Z,7.83
2022-11-08T01:30:42.741Z,7.84
2022-11-08T01:33:10.811Z,7.82
2022-11-08T01:35:38.437Z,7.85
2022-11-08T01:38:06.847Z,7.87
2022-11-08T01:40:35.179Z,7.88
2022-11-08T01:43:30.958Z,7.93
2022-11-08T01:46:20.257Z,7.93
2022-11-08T01:49:13.591Z,7.96
2022-11-08T01:52:01.492Z,7.97
2022-11-08T01:54:52.386Z,7.97
2022-11-08T01:57:26.611Z,7.97
2022-11-08T01:59:57.168Z,7.97
2022-11-08T02:02:24.557Z,8.05
2022-11-08T02:04:52.256Z,8.06
2022-11-08T02:07:19.520Z,8.07
2022-11-08T02:09:48.747Z,8.04
2022-11-08T02:12:16.378Z,8.05
2022-11-08T02:14:44.138Z,8.08
2022-11-08T02:17:11.536Z,8.06
2022-11-08T02:19:52.212Z,8.14
2022-11-08T02:22:29.485Z,8.14
2022-11-08T02:24:58.646Z,8.18
2022-11-08T02:27:26.473Z,8.21
2022-11-08T02:29:55.443Z,8.24
2022-11-08T02:32:24.326Z,8.18
2022-11-08T02:34:57.212Z,8.25
2022-11-08T02:37:26.317Z,8.24
2022-11-08T02:39:54.001Z,8.22
2022-11-08T02:42:22.291Z,8.26
2022-11-08T02:44:51.734Z,8.26
2022-11-08T02:47:19.145Z,8.26
2022-11-08T02:49:48.189Z,8.27
2022-11-08T02:52:15.531Z,8.26
2022-11-08T02:54:43.178Z,8.32
2022-11-08T02:57:10.555Z,8.33
2022-11-08T02:59:38.095Z,8.29
2022-11-08T03:02:05.769Z,8.36
2022-11-08T03:04:34.011Z,8.37
2022-11-08T03:07:01.277Z,8.41
2022-11-08T03:09:29.031Z,8.33
2022-11-08T03:11:56.547Z,8.40
2022-11-08T03:14:24.190Z,8.38
2022-11-08T03:16:51.568Z,8.37
2022-11-08T03:19:19.406Z,8.35
2022-11-08T03:21:46.599Z,8.33
2022-11-08T03:24:14.511Z,8.40
2022-11-08T03:26:42.031Z,8.33
2022-11-08T03:29:09.850Z,8.30
2022-11-08T03:31:37.184Z,8.29
2022-11-08T03:34:04.839Z,8.29
2022-11-08T03:36:32.382Z,8.30
2022-11-08T03:39:00.027Z,8.35
2022-11-08T03:41:27.626Z,8.29
2022-11-08T03:43:55.260Z,8.22
2022-11-08T03:46:22.634Z,8.26
2022-11-08T03:48:50.532Z,8.28
2022-11-08T03:51:18.131Z,8.24
2022-11-08T03:53:45.747Z,8.27
2022-11-08T03:56:13.030Z,8.25
2022-11-08T03:58:40.769Z,8.20
2022-11-08T04:01:08.675Z,8.20
2022-11-08T04:03:36.236Z,8.22
2022-11-08T04:06:04.117Z,8.22
2022-11-08T04:08:31.971Z,8.16
2022-11-08T04:11:20.002Z,8.10
2022-11-08T04:14:06.696Z,8.08
2022-11-08T04:16:34.351Z,8.10
2022-11-08T04:19:20.623Z,8.13
2022-11-08T04:21:48.825Z,8.11
2022-11-08T04:24:16.765Z,8.16
2022-11-08T04:26:44.400Z,8.15
2022-11-08T04:29:12.295Z,8.14
2022-11-08T04:31:39.871Z,8.15
2022-11-08T04:34:07.677Z,8.22
2022-11-08T04:36:35.232Z,8.21
2022-11-08T04:39:02.836Z,8.19
2022-11-08T04:41:30.370Z,8.19
2022-11-08T04:43:58.044Z,8.24
2022-11-08T04:46:27.316Z,8.28
2022-11-08T04:48:57.554Z,8.29
2022-11-08T04:51:30.241Z,8.26
2022-11-08T04:54:00.105Z,8.25
2022-11-08T04:56:29.603Z,8.23
2022-11-08T04:58:59.696Z,8.27
2022-11-08T05:01:31.758Z,8.29
2022-11-08T05:03:59.738Z,8.29
2022-11-08T05:06:31.738Z,8.31
2022-11-08T05:09:00.616Z,8.26
2022-11-08T05:11:30.363Z,8.28
2022-11-08T05:13:58.390Z,8.28
2022-11-08T05:16:31.054Z,8.29
2022-11-08T05:18:58.879Z,8.23
2022-11-08T05:21:45.263Z,8.20
2022-11-08T05:24:14.984Z,8.22
2022-11-08T05:26:44.470Z,8.16
2022-11-08T05:29:13.971Z,8.19
2022-11-08T05:31:41.616Z,8.09
2022-11-08T05:34:29.903Z,8.12
2022-11-08T05:36:57.314Z,8.11
2022-11-08T05:39:28.243Z,8.13
2022-11-08T05:41:59.802Z,8.15
2022-11-08T05:44:28.305Z,8.12
2022-11-08T05:46:56.451Z,8.13
2022-11-08T05:49:24.122Z,8.09
2022-11-08T05:51:51.738Z,8.09
2022-11-08T05:54:20.723Z,8.11
2022-11-08T05:56:48.764Z,8.11
2022-11-08T05:59:16.486Z,8.11
2022-11-08T06:01:43.862Z,8.11
2022-11-08T06:04:11.635Z,8.10
2022-11-08T06:06:39.015Z,8.15
2022-11-08T06:09:06.659Z,8.17
2022-11-08T06:11:34.014Z,8.22
2022-11-08T06:14:01.707Z,8.24
2022-11-08T06:16:29.189Z,8.24
2022-11-08T06:18:56.829Z,8.30
2022-11-08T06:21:24.438Z,8.30
2022-11-08T06:23:54.808Z,8.33
2022-11-08T06:26:23.885Z,8.34
2022-11-08T06:28:51.548Z,8.35
2022-11-08T06:31:19.294Z,8.36
2022-11-08T06:33:47.049Z,8.34
2022-11-08T06:36:14.453Z,8.42
2022-11-08T06:38:42.161Z,8.41
2022-11-08T06:41:17.131Z,8.42
2022-11-08T06:43:44.781Z,8.42
2022-11-08T06:46:12.101Z,8.46
2022-11-08T06:48:39.703Z,8.51
2022-11-08T06:51:07.141Z,8.56
2022-11-08T06:53:34.842Z,8.57
2022-11-08T06:56:03.071Z,8.63
2022-11-08T06:58:31.581Z,8.67
2022-11-08T07:01:01.135Z,8.72
2022-11-08T07:03:28.742Z,8.73
2022-11-08T07:05:56.093Z,8.76
2022-11-08T07:08:24.486Z,8.81
2022-11-08T07:10:52.034Z,8.77
2022-11-08T07:13:20.258Z,8.80
2022-11-08T07:15:48.268Z,8.91
2022-11-08T07:18:17.226Z,8.86
2022-11-08T07:20:44.752Z,8.90
2022-11-08T07:23:12.910Z,8.85
2022-11-08T07:25:40.305Z,8.95
2022-11-08T07:28:09.188Z,9.03
2022-11-08T07:30:36.613Z,9.02
2022-11-08T07:33:05.093Z,9.03
2022-11-08T07:35:32.361Z,9.04
2022-11-08T07:38:00.317Z,9.05
2022-11-08T07:40:28.095Z,9.20
2022-11-08T07:43:14.990Z,9.18
2022-11-08T07:45:44.049Z,9.28
2022-11-08T07:48:13.573Z,9.39
2022-11-08T07:50:42.258Z,9.44
2022-11-08T07:53:11.220Z,9.54
2022-11-08T07:55:41.169Z,9.70
2022-11-08T07:58:12.652Z,9.98
2022-11-08T08:00:42.180Z,10.22
2022-11-08T08:03:12.369Z,10.42
2022-11-08T08:05:43.161Z,10.53
2022-11-08T08:08:12.561Z,10.70
2022-11-08T08:10:41.128Z,10.94
2022-11-08T08:13:09.165Z,11.14
2022-11-08T08:15:37.542Z,11.31
2022-11-08T08:18:07.707Z,11.42
2022-11-08T08:20:36.050Z,11.61
2022-11-08T08:23:03.779Z,11.79
2022-11-08T08:25:31.734Z,11.92
2022-11-08T08:28:03.272Z,12.06
2022-11-08T08:30:31.890Z,12.22
2022-11-08T08:35:57.583Z,12.52
2022-11-08T08:38:25.069Z,12.76
2022-11-08T08:40:52.502Z,12.92
2022-11-08T08:43:20.866Z,13.04
2022-11-08T08:45:49.092Z,13.22
2022-11-08T08:48:16.954Z,13.40
2022-11-08T08:50:44.333Z,13.76
2022-11-08T08:53:12.107Z,14.11
2022-11-08T08:55:40.698Z,14.44
2022-11-08T08:58:09.855Z,14.74
2022-11-08T09:03:25.443Z,15.28
2022-11-08T09:05:52.619Z,15.98
2022-11-08T09:08:20.480Z,16.31
2022-11-08T09:10:53.972Z,16.64
2022-11-08T09:13:22.152Z,16.72
2022-11-08T09:15:49.656Z,17.08
2022-11-08T09:18:17.827Z,17.16
2022-11-08T09:20:45.539Z,16.86
2022-11-08T09:23:15.286Z,16.24
2022-11-08T09:25:42.884Z,15.49
2022-11-08T09:28:10.688Z,15.16
2022-11-08T09:30:38.038Z,14.79
2022-11-08T09:33:05.987Z,14.49
2022-11-08T09:35:34.262Z,14.21
2022-11-08T09:38:02.103Z,13.97
2022-11-08T09:40:52.293Z,13.75
2022-11-08T09:43:41.808Z,13.67
2022-11-08T09:46:18.306Z,13.58
2022-11-08T09:48:46.313Z,13.71
2022-11-08T09:51:16.729Z,13.70
2022-11-08T09:53:50.150Z,13.63
2022-11-08T09:56:24.893Z,13.55
2022-11-08T09:58:54.852Z,13.60
2022-11-08T10:01:26.914Z,13.64
2022-11-08T10:03:56.556Z,13.67
2022-11-08T10:06:45.984Z,13.69
2022-11-08T10:09:26.343Z,13.67
2022-11-08T10:12:22.637Z,13.63
2022-11-08T10:15:02.320Z,13.69
2022-11-08T10:17:32.655Z,13.73
2022-11-08T10:20:38.183Z,13.68
2022-11-08T10:23:27.485Z,13.71
2022-11-08T10:25:57.943Z,13.60
2022-11-08T10:28:37.453Z,13.59
2022-11-08T10:31:05.785Z,13.73
2022-11-08T10:33:56.874Z,13.74
2022-11-08T10:36:38.040Z,13.75
2022-11-08T10:39:22.114Z,13.89
2022-11-08T10:41:59.546Z,13.99
2022-11-08T10:44:27.931Z,14.12
2022-11-08T10:47:00.800Z,14.25
2022-11-08T10:49:32.449Z,14.25
2022-11-08T10:52:25.530Z,14.24
2022-11-08T10:54:55.013Z,14.26
2022-11-08T10:57:26.514Z,14.29
2022-11-08T10:59:54.765Z,14.35
2022-11-08T11:02:29.488Z,14.30
2022-11-08T11:05:16.962Z,14.33
2022-11-08T11:08:05.346Z,14.38
2022-11-08T11:10:34.483Z,14.23
2022-11-08T11:13:22.557Z,14.27
2022-11-08T11:15:54.116Z,14.35
2022-11-08T11:18:47.507Z,14.35
2022-11-08T11:21:19.824Z,14.41
2022-11-08T11:25:14.471Z,14.56
2022-11-08T11:27:43.362Z,14.62
2022-11-08T11:30:28.461Z,14.77
2022-11-08T11:33:07.060Z,14.78
2022-11-08T11:35:47.828Z,14.76
2022-11-08T11:38:25.172Z,14.80
2022-11-08T11:40:53.715Z,14.86
2022-11-08T11:43:42.794Z,14.91
2022-11-08T11:46:51.905Z,14.93
2022-11-08T11:49:23.435Z,15.09
2022-11-08T11:51:55.288Z,15.12
2022-11-08T11:54:32.624Z,14.96
2022-11-08T11:57:32.449Z,15.13
2022-11-08T12:00:07.686Z,15.10
2022-11-08T12:04:00.394Z,15.12
2022-11-08T12:06:39.801Z,15.16
2022-11-08T12:12:09.324Z,15.18
2022-11-08T12:15:14.562Z,15.16
2022-11-08T12:17:57.070Z,15.25
2022-11-08T12:20:36.492Z,15.19
2022-11-08T12:23:34.853Z,15.11
2022-11-08T12:26:40.676Z,15.14
2022-11-08T12:29:10.811Z,15.19
2022-11-08T12:32:07.930Z,15.19
2022-11-08T12:34:46.330Z,15.37
2022-11-08T12:38:25.443Z,15.20
2022-11-08T12:40:56.701Z,15.11
2022-11-08T12:43:49.287Z,15.10
2022-11-08T12:46:18.723Z,15.13
2022-11-08T12:48:55.125Z,15.09
2022-11-08T12:51:45.020Z,15.05
2022-11-08T12:54:31.457Z,15.02
2022-11-08T12:57:03.550Z,15.00
2022-11-08T12:59:52.378Z,14.96
2022-11-08T13:02:24.971Z,14.96
2022-11-08T13:04:58.901Z,15.01
2022-11-08T13:07:51.936Z,15.04
2022-11-08T13:10:23.267Z,14.97
2022-11-08T13:12:53.393Z,14.91
2022-11-08T13:15:25.266Z,14.95
2022-11-08T13:18:11.449Z,14.99
2022-11-08T13:20:45.145Z,14.93
2022-11-08T13:23:26.108Z,14.80
2022-11-08T13:25:54.089Z,14.81
2022-11-08T13:28:43.931Z,14.79
2022-11-08T13:31:29.866Z,14.68
2022-11-08T13:34:06.242Z,14.67
2022-11-08T13:36:44.666Z,14.70
2022-11-08T13:39:27.764Z,14.71
2022-11-08T13:42:26.382Z,14.67
2022-11-08T13:45:00.263Z,14.62
2022-11-08T13:47:33.962Z,14.54
2022-11-08T13:50:26.235Z,14.47
2022-11-08T13:53:12.970Z,14.36
2022-11-08T13:56:58.169Z,14.37
2022-11-08T13:59:31.790Z,14.28
2022-11-08T14:02:03.776Z,14.25
2022-11-08T14:05:24.730Z,14.22
2022-11-08T14:08:02.594Z,14.12
2022-11-08T14:10:40.911Z,14.05
2022-11-08T14:13:17.687Z,13.96
2022-11-08T14:15:52.278Z,13.87
2022-11-08T14:18:31.464Z,13.79
2022-11-08T14:20:59.015Z,13.79
2022-11-08T14:23:29.469Z,13.75
2022-11-08T14:26:06.806Z,13.74
2022-11-08T14:28:37.481Z,13.66
2022-11-08T14:31:08.084Z,13.63
2022-11-08T14:33:42.784Z,13.54
2022-11-08T14:36:15.788Z,13.42
2022-11-08T14:38:52.847Z,13.33
2022-11-08T14:41:25.686Z,13.22
2022-11-08T14:43:54.625Z,13.10
2022-11-08T14:46:31.475Z,12.93
2022-11-08T14:49:28.197Z,12.81
2022-11-08T14:52:18.556Z,12.76
2022-11-08T14:54:47.804Z,12.59
2022-11-08T14:57:41.152Z,12.47
2022-11-08T15:00:19.879Z,12.37
2022-11-08T15:02:53.222Z,12.24
2022-11-08T15:05:28.936Z,12.15
2022-11-08T15:07:57.617Z,12.02
2022-11-08T15:10:25.772Z,11.91
2022-11-08T15:12:53.463Z,11.83
2022-11-08T15:15:22.733Z,11.72
2022-11-08T15:18:13.503Z,11.54
2022-11-08T15:20:56.075Z,11.46
2022-11-08T15:23:54.625Z,11.40
2022-11-08T15:26:31.549Z,11.26
2022-11-08T15:29:09.908Z,11.14
2022-11-08T15:31:41.937Z,11.03
2022-11-08T15:34:39.153Z,10.93
2022-11-08T15:37:40.246Z,10.84
2022-11-08T15:40:27.424Z,10.70
2022-11-08T15:42:55.143Z,10.57
2022-11-08T15:45:28.990Z,10.49
2022-11-08T15:48:09.254Z,10.35
2022-11-08T15:50:36.806Z,10.30
2022-11-08T15:53:05.432Z,10.14
2022-11-08T15:55:38.738Z,10.18
2022-11-08T15:58:21.222Z,10.07
2022-11-08T16:00:49.503Z,10.03
2022-11-08T16:03:17.414Z,9.92
2022-11-08T16:05:44.798Z,9.87
2022-11-08T16:08:17.036Z,9.81
2022-11-08T16:10:49.353Z,9.72
2022-11-08T16:13:20.352Z,9.66
2022-11-08T16:15:48.427Z,9.63
2022-11-08T16:18:16.909Z,9.53
2022-11-08T16:20:44.550Z,9.53
2022-11-08T16:23:13.286Z,9.51
2022-11-08T16:25:43.812Z,9.47
2022-11-08T16:28:33.856Z,9.45
2022-11-08T16:31:06.101Z,9.40
2022-11-08T16:33:35.179Z,9.31
2022-11-08T16:36:20.897Z,9.22
2022-11-08T16:38:56.203Z,9.22
2022-11-08T16:41:25.083Z,9.16
2022-11-08T16:43:52.925Z,9.09
2022-11-08T16:46:21.749Z,9.03
2022-11-08T16:48:56.249Z,8.98
2022-11-08T16:51:25.640Z,8.92
2022-11-08T16:53:53.670Z,8.94
2022-11-08T16:56:21.741Z,8.92
2022-11-08T16:58:49.928Z,8.92
2022-11-08T17:01:32.817Z,8.96
2022-11-08T17:04:00.793Z,8.96
2022-11-08T17:06:28.797Z,8.98
2022-11-08T17:08:56.612Z,9.01
2022-11-08T17:11:24.373Z,9.04
2022-11-08T17:13:55.593Z,9.02
2022-11-08T17:16:22.882Z,9.09
2022-11-08T17:18:53.070Z,9.12
2022-11-08T17:24:09.052Z,9.37
2022-11-08T17:26:36.372Z,9.46
2022-11-08T17:29:04.032Z,9.49
2022-11-08T17:31:31.329Z,9.58
2022-11-08T17:33:58.898Z,9.59
2022-11-08T17:36:26.213Z,9.61
2022-11-08T17:38:53.684Z,9.60
2022-11-08T17:41:21.213Z,9.56
2022-11-08T17:43:48.830Z,9.62
2022-11-08T17:46:16.210Z,9.64
2022-11-08T17:48:43.883Z,9.67
2022-11-08T17:51:13.283Z,9.60
2022-11-08T17:53:41.081Z,9.61
2022-11-08T17:56:08.942Z,9.59
2022-11-08T17:58:38.097Z,9.57
2022-11-08T18:01:06.729Z,9.55
2022-11-08T18:03:34.978Z,9.50
2022-11-08T18:06:08.042Z,9.45
2022-11-08T18:08:35.981Z,9.43
2022-11-08T18:11:04.301Z,9.40
2022-11-08T18:13:32.397Z,9.37
2022-11-08T18:16:13.262Z,9.39
2022-11-08T18:18:41.775Z,9.39
2022-11-08T18:21:09.902Z,9.39
2022-11-08T18:23:40.935Z,9.36
2022-11-08T18:26:09.139Z,9.40
2022-11-08T18:28:37.861Z,9.41
2022-11-08T18:31:10.635Z,9.40
2022-11-08T18:33:38.823Z,9.45
2022-11-08T18:36:08.351Z,9.55
2022-11-08T18:38:39.290Z,9.57
2022-11-08T18:41:07.572Z,9.62
2022-11-08T18:43:35.715Z,9.64
2022-11-08T18:46:12.956Z,9.80
2022-11-08T18:48:40.965Z,9.80
2022-11-08T18:51:10.915Z,9.86
2022-11-08T18:53:39.728Z,9.95
2022-11-08T18:56:07.524Z,9.99
2022-11-08T18:58:35.287Z,9.99
2022-11-08T19:01:03.026Z,9.95
2022-11-08T19:03:31.029Z,10.05
2022-11-08T19:05:58.267Z,10.05
2022-11-08T19:08:27.537Z,10.05
2022-11-08T19:11:00.663Z,10.08
2022-11-08T19:13:29.960Z,10.04
2022-11-08T19:16:13.740Z,10.05
2022-11-08T19:18:42.526Z,10.01
2022-11-08T19:21:13.986Z,10.17
2022-11-08T19:23:42.604Z,10.11
2022-11-08T19:26:29.433Z,10.05
2022-11-08T19:28:57.699Z,10.09
2022-11-08T19:31:25.915Z,10.05
2022-11-08T19:33:54.806Z,10.09
2022-11-08T19:36:27.356Z,10.11
2022-11-08T19:38:56.522Z,10.06
2022-11-08T19:41:26.151Z,10.05
2022-11-08T19:43:55.319Z,10.04
2022-11-08T19:46:26.074Z,10.05
2022-11-08T19:48:53.913Z,10.03
2022-11-08T19:51:23.191Z,9.98
2022-11-08T19:53:54.651Z,9.95
2022-11-08T19:56:29.288Z,10.00
2022-11-08T19:59:10.044Z,9.95
2022-11-08T20:01:40.002Z,9.90
2022-11-08T20:04:09.992Z,9.94
2022-11-08T20:06:38.150Z,9.94
2022-11-08T20:09:06.312Z,9.94
2022-11-08T20:11:36.177Z,9.90
2022-11-08T20:14:05.008Z,9.89
2022-11-08T20:16:41.885Z,9.80
2022-11-08T20:19:15.126Z,9.84
2022-11-08T20:21:45.827Z,9.89
2022-11-08T20:24:14.799Z,9.81
2022-11-08T20:26:42.303Z,9.72
2022-11-08T20:29:10.634Z,9.74
2022-11-08T20:31:39.247Z,9.74
2022-11-08T20:34:10.294Z,9.72
2022-11-08T20:36:38.135Z,9.66
2022-11-08T20:39:07.692Z,9.59
2022-11-08T20:41:37.980Z,9.63
2022-11-08T20:44:06.883Z,9.63
2022-11-08T20:46:35.325Z,9.63
2022-11-08T20:49:04.586Z,9.62
2022-11-08T20:51:33.132Z,9.57
2022-11-08T20:54:01.509Z,9.52
2022-11-08T20:56:29.447Z,9.44
2022-11-08T20:58:57.542Z,9.48
2022-11-08T21:01:28.231Z,9.35
2022-11-08T21:03:57.177Z,9.35
2022-11-08T21:06:26.521Z,9.36
2022-11-08T21:09:08.255Z,9.36
2022-11-08T21:11:42.520Z,9.26
2022-11-08T21:14:11.071Z,9.26
2022-11-08T21:16:59.767Z,9.30
2022-11-08T21:19:27.224Z,9.29
2022-11-08T21:22:14.437Z,9.20
2022-11-08T21:24:46.453Z,9.17
2022-11-08T21:27:14.434Z,9.21
2022-11-08T21:29:42.231Z,9.15
2022-11-08T21:32:09.545Z,9.12
2022-11-08T21:34:37.346Z,9.08
2022-11-08T21:37:04.682Z,9.15
2022-11-08T21:39:32.875Z,9.17
2022-11-08T21:42:00.535Z,9.16
2022-11-08T21:44:28.050Z,9.16
2022-11-08T21:46:55.446Z,9.20
2022-11-08T21:49:23.116Z,9.17
2022-11-08T21:51:50.697Z,9.11
2022-11-08T21:54:18.989Z,9.07
2022-11-08T21:56:46.219Z,9.02
2022-11-08T21:59:13.895Z,9.04
2022-11-08T22:01:41.239Z,9.05
2022-11-08T22:04:09.115Z,9.09
2022-11-08T22:06:36.558Z,9.08
2022-11-08T22:09:04.443Z,9.02
2022-11-08T22:11:31.844Z,9.02
2022-11-08T22:13:59.468Z,9.02
2022-11-08T22:16:26.725Z,8.99
2022-11-08T22:19:10.125Z,8.98
2022-11-08T22:21:38.360Z,8.99
2022-11-08T22:24:13.623Z,8.93
2022-11-08T22:26:44.036Z,8.90
2022-11-08T22:29:11.714Z,8.91
2022-11-08T22:31:39.558Z,8.84
2022-11-08T22:34:08.665Z,8.86
2022-11-08T22:36:42.968Z,8.72
2022-11-08T22:39:18.219Z,8.68
2022-11-08T22:41:46.640Z,8.64
2022-11-08T22:44:14.730Z,8.59
2022-11-08T22:46:42.967Z,8.58
2022-11-08T22:49:11.367Z,8.57
2022-11-08T22:51:39.519Z,8.51
2022-11-08T22:54:07.062Z,8.56
2022-11-08T22:56:34.479Z,8.53
2022-11-08T22:59:02.700Z,8.49
2022-11-08T23:01:30.132Z,8.47
2022-11-08T23:03:57.983Z,8.50
2022-11-08T23:06:25.228Z,8.45
2022-11-08T23:08:53.209Z,8.39
2022-11-08T23:11:39.063Z,8.44
2022-11-08T23:14:25.511Z,8.40
2022-11-08T23:16:53.070Z,8.40
2022-11-08T23:19:41.266Z,8.43
2022-11-08T23:22:34.616Z,8.37
2022-11-08T23:25:02.751Z,8.48
2022-11-08T23:27:49.702Z,8.42
2022-11-08T23:30:37.002Z,8.37
2022-11-08T23:33:06.149Z,8.39
2022-11-08T23:35:33.830Z,8.34
2022-11-08T23:38:01.197Z,8.37
2022-11-08T23:40:47.542Z,8.34
2022-11-08T23:43:38.022Z,8.34
2022-11-08T23:46:11.650Z,8.31
2022-11-08T23:48:40.290Z,8.30
2022-11-08T23:51:08.263Z,8.22
2022-11-08T23:53:37.276Z,8.19
2022-11-08T23:56:05.748Z,8.17
2022-11-08T23:58:33.691Z,8.14
